createdAt,value
2019-03-17T00:00:49.479Z,95370.39
2019-03-17T00:03:39.305Z,95366.53
2019-03-17T00:06:29.179Z,95373.77
2019-03-17T00:09:30.827Z,95375.95
2019-03-17T00:12:13.289Z,95376.36
2019-03-17T00:15:05.800Z,95358.28
2019-03-17T00:17:47.085Z,95372.06
2019-03-17T00:20:36.811Z,95366.42
2019-03-17T00:23:20.466Z,95363.84
2019-03-17T00:26:10.141Z,95363.47
2019-03-17T00:31:56.727Z,95368.25
2019-03-17T00:34:46.402Z,95362.03
2019-03-17T00:37:29.269Z,95361.69
2019-03-17T00:43:14.770Z,95350.82
2019-03-17T00:46:16.777Z,95336.34
2019-03-17T00:49:01.730Z,95328.86
2019-03-17T00:51:44.491Z,95343.02
2019-03-17T00:54:15.165Z,95342.30
2019-03-17T00:57:04.946Z,95336.56
2019-03-17T00:59:47.718Z,95336.78
2019-03-17T01:02:37.676Z,95320.55
2019-03-17T01:08:42.002Z,95308.95
2019-03-17T01:11:31.728Z,95308.16
2019-03-17T01:14:14.440Z,95301.73
2019-03-17T01:17:15.994Z,95280.78
2019-03-17T01:19:58.530Z,95274.75
2019-03-17T01:22:40.954Z,95277.98
2019-03-17T01:25:42.848Z,95276.75
2019-03-17T01:28:26.879Z,95279.84
2019-03-17T01:31:16.733Z,95283.57
2019-03-17T01:34:06.528Z,95248.53
2019-03-17T01:36:56.312Z,95264.75
2019-03-17T01:39:46.157Z,95247.02
2019-03-17T01:42:49.258Z,95258.17
2019-03-17T01:45:32.077Z,95236.91
2019-03-17T01:48:33.264Z,95249.52
2019-03-17T01:51:15.786Z,95253.36
2019-03-17T01:57:02.582Z,95252.02
2019-03-17T01:59:52.460Z,95253.45
2019-03-17T02:02:54.258Z,95249.58
2019-03-17T02:05:36.827Z,95227.28
2019-03-17T02:11:41.734Z,95220.05
2019-03-17T02:17:25.838Z,95228.83
2019-03-17T02:20:29.049Z,95214.52
2019-03-17T02:23:11.695Z,95210.81
2019-03-17T02:26:01.655Z,95207.31
2019-03-17T02:31:46.445Z,95194.03
2019-03-17T02:34:36.444Z,95197.67
2019-03-17T02:37:26.230Z,95188.73
2019-03-17T02:40:16.015Z,95170.08
2019-03-17T02:43:05.897Z,95190.30
2019-03-17T02:45:55.874Z,95190.63
2019-03-17T02:48:45.778Z,95165.75
2019-03-17T02:55:04.780Z,95176.06
2019-03-17T02:57:48.009Z,95169.84
2019-03-17T03:03:32.351Z,95169.59
2019-03-17T03:06:22.028Z,95163.17
2019-03-17T03:12:45.518Z,95140.95
2019-03-17T03:15:28.107Z,95159.43
2019-03-17T03:21:27.014Z,95137.27
2019-03-17T03:24:27.587Z,95127.59
2019-03-17T03:27:12.237Z,95137.78
2019-03-17T03:29:54.909Z,95147.98
2019-03-17T03:32:55.869Z,95135.97
2019-03-17T03:35:39.907Z,95150.91
2019-03-17T03:38:24.350Z,95124.01
2019-03-17T03:41:26.129Z,95132.50
2019-03-17T03:44:10.833Z,95149.88
2019-03-17T03:46:53.674Z,95150.70
2019-03-17T03:49:57.125Z,95153.52
2019-03-17T03:52:39.607Z,95155.69
2019-03-17T03:55:29.333Z,95160.81
2019-03-17T04:01:33.516Z,95124.30
2019-03-17T04:07:18.829Z,95148.73
2019-03-17T04:10:20.199Z,95143.69
2019-03-17T04:13:03.578Z,95147.57
2019-03-17T04:15:47.211Z,95150.13
2019-03-17T04:21:34.082Z,95149.36
2019-03-17T04:24:23.972Z,95139.80
2019-03-17T04:27:13.732Z,95143.81
2019-03-17T04:30:15.147Z,95131.17
2019-03-17T04:32:58.702Z,95123.00
2019-03-17T04:35:59.416Z,95110.66
2019-03-17T04:38:43.866Z,95115.61
2019-03-17T04:41:33.983Z,95087.76
2019-03-17T04:47:28.000Z,95109.25
2019-03-17T04:50:11.484Z,95105.30
2019-03-17T04:53:01.194Z,95114.16
2019-03-17T04:55:44.272Z,95117.63
2019-03-17T05:01:35.948Z,95116.59
2019-03-17T05:04:25.775Z,95103.60
2019-03-17T05:10:29.945Z,95115.01
2019-03-17T05:16:15.478Z,95103.44
2019-03-17T05:19:05.345Z,95130.72
2019-03-17T05:21:55.038Z,95120.61
2019-03-17T05:24:38.270Z,95124.72
2019-03-17T05:27:28.414Z,95125.41
2019-03-17T05:30:18.120Z,95121.98
2019-03-17T05:33:07.800Z,95119.09
2019-03-17T05:38:52.166Z,95087.44
2019-03-17T05:41:35.107Z,95113.97
2019-03-17T05:47:19.928Z,95113.23
2019-03-17T05:53:04.511Z,95104.57
2019-03-17T05:56:05.539Z,95102.27
2019-03-17T05:58:47.845Z,95105.58
2019-03-17T06:01:37.576Z,95110.83
2019-03-17T06:04:20.103Z,95113.94
2019-03-17T06:07:21.821Z,95119.54
2019-03-17T06:10:05.617Z,95118.45
2019-03-17T06:12:55.648Z,95123.23
2019-03-17T06:15:45.421Z,95133.31
2019-03-17T06:18:35.172Z,95122.78
2019-03-17T06:21:24.971Z,95118.23
2019-03-17T06:24:14.666Z,95121.09
2019-03-17T06:27:04.392Z,95117.38
2019-03-17T06:29:54.098Z,95124.52
2019-03-17T06:32:36.821Z,95097.78
2019-03-17T06:38:21.632Z,95121.55
2019-03-17T06:41:22.630Z,95126.77
2019-03-17T06:44:05.111Z,95131.41
2019-03-17T06:46:54.875Z,95129.03
2019-03-17T06:52:53.723Z,95132.93
2019-03-17T06:55:43.587Z,95129.08
2019-03-17T06:58:33.541Z,95113.39
2019-03-17T07:06:50.068Z,95104.02
2019-03-17T07:09:33.081Z,95100.98
2019-03-17T07:15:16.124Z,95122.03
2019-03-17T07:18:05.935Z,95119.36
2019-03-17T07:23:58.804Z,95114.84
2019-03-17T07:26:41.075Z,95088.59
2019-03-17T07:29:30.791Z,95104.47
2019-03-17T07:32:20.514Z,95104.77
2019-03-17T07:35:10.289Z,95098.34
2019-03-17T07:37:57.005Z,95081.27
2019-03-17T07:43:38.720Z,95106.99
2019-03-17T07:46:28.637Z,95115.19
2019-03-17T07:49:30.265Z,95091.35
2019-03-17T07:52:13.164Z,95118.25
2019-03-17T07:57:57.497Z,95122.69
2019-03-17T08:00:47.248Z,95106.19
2019-03-17T08:06:34.616Z,95126.41
2019-03-17T08:09:24.344Z,95099.36
2019-03-17T08:12:06.834Z,95115.84
2019-03-17T08:14:57.765Z,95108.56
2019-03-17T08:17:42.134Z,95122.98
2019-03-17T08:20:31.889Z,95102.16
2019-03-17T08:23:15.474Z,95102.34
2019-03-17T08:29:00.459Z,95125.59
2019-03-17T08:35:19.180Z,95096.31
2019-03-17T08:38:01.696Z,95097.70
2019-03-17T08:43:54.093Z,95111.94
2019-03-17T08:46:37.468Z,95111.08
2019-03-17T08:49:40.256Z,95103.64
2019-03-17T08:52:23.367Z,95109.44
2019-03-17T08:55:13.045Z,95102.84
2019-03-17T08:57:55.096Z,95105.59
2019-03-17T09:00:44.808Z,95107.39
2019-03-17T09:03:27.179Z,95109.83
2019-03-17T09:12:20.852Z,95100.81
2019-03-17T09:14:51.470Z,95104.23
2019-03-17T09:17:41.702Z,95105.56
2019-03-17T09:20:31.440Z,95083.40
2019-03-17T09:23:13.844Z,95105.05
2019-03-17T09:26:03.564Z,95107.69
2019-03-17T09:28:47.362Z,95093.88
2019-03-17T09:31:37.129Z,95096.20
2019-03-17T09:34:21.590Z,95098.46
2019-03-17T09:40:06.529Z,95095.70
2019-03-17T09:43:07.842Z,95087.02
2019-03-17T09:45:50.883Z,95083.50
2019-03-17T09:48:40.647Z,95079.70
2019-03-17T09:51:30.447Z,95063.91
2019-03-17T09:54:15.027Z,95073.35
2019-03-17T09:56:57.353Z,95077.50
2019-03-17T09:59:47.122Z,95077.59
2019-03-17T10:02:36.904Z,95059.61
2019-03-17T10:05:38.229Z,95073.59
2019-03-17T10:08:21.142Z,95079.79
2019-03-17T10:11:10.940Z,95076.45
2019-03-17T10:14:00.677Z,95080.98
2019-03-17T10:16:50.412Z,95077.31
2019-03-17T10:19:33.157Z,95069.22
2019-03-17T10:22:23.071Z,95079.08
2019-03-17T10:25:13.031Z,95090.63
2019-03-17T10:28:02.976Z,95086.13
2019-03-17T10:30:52.721Z,95087.31
2019-03-17T10:33:42.467Z,95091.09
2019-03-17T10:36:32.183Z,95082.94
2019-03-17T10:39:14.240Z,95095.89
2019-03-17T10:42:04.053Z,95092.09
2019-03-17T10:44:53.814Z,95078.33
2019-03-17T10:47:43.645Z,95098.36
2019-03-17T10:50:33.397Z,95092.74
2019-03-17T10:53:23.273Z,95086.66
2019-03-17T10:56:13.141Z,95082.17
2019-03-17T11:02:05.103Z,95080.03
2019-03-17T11:04:48.048Z,95056.00
2019-03-17T11:07:37.856Z,95068.81
2019-03-17T11:10:38.801Z,95061.48
2019-03-17T11:13:21.484Z,95057.30
2019-03-17T11:19:07.504Z,95041.42
2019-03-17T11:21:57.211Z,95045.19
2019-03-17T11:24:41.284Z,95039.27
2019-03-17T11:27:23.648Z,95056.94
2019-03-17T11:33:47.807Z,95052.47
2019-03-17T11:36:37.638Z,95052.41
2019-03-17T11:42:45.657Z,95054.69
2019-03-17T11:45:35.386Z,95047.30
2019-03-17T11:48:19.685Z,95049.09
2019-03-17T11:54:06.244Z,95039.28
2019-03-17T11:56:56.160Z,95047.93
2019-03-17T11:59:45.948Z,95041.95
2019-03-17T12:06:16.311Z,95037.72
2019-03-17T12:09:00.618Z,95005.67
2019-03-17T12:11:50.555Z,95030.86
2019-03-17T12:14:52.049Z,95031.33
2019-03-17T12:17:35.087Z,95010.40
2019-03-17T12:23:28.630Z,95021.68
2019-03-17T12:26:12.298Z,95017.80
2019-03-17T12:29:02.268Z,94999.02
2019-03-17T12:31:51.980Z,95018.77
2019-03-17T12:34:41.695Z,95019.92
2019-03-17T12:37:24.436Z,95016.29
2019-03-17T12:40:44.926Z,95005.52
2019-03-17T12:43:27.582Z,95012.87
2019-03-17T12:46:17.396Z,95011.77
2019-03-17T12:49:07.204Z,95006.78
2019-03-17T12:52:08.695Z,94984.14
2019-03-17T12:54:50.992Z,94984.33
2019-03-17T13:00:55.340Z,94998.06
2019-03-17T13:03:56.720Z,94994.14
2019-03-17T13:06:39.342Z,94985.87
2019-03-17T13:09:29.123Z,94995.95
2019-03-17T13:12:30.352Z,94996.47
2019-03-17T13:15:12.659Z,94996.39
2019-03-17T13:18:02.412Z,94991.23
2019-03-17T13:20:45.276Z,94992.06
2019-03-17T13:23:34.989Z,94990.72
2019-03-17T13:26:17.155Z,94995.64
2019-03-17T13:32:08.779Z,95013.06
2019-03-17T13:34:58.475Z,94997.95
2019-03-17T13:37:41.245Z,94995.67
2019-03-17T13:43:26.163Z,94994.60
2019-03-17T13:46:16.035Z,94996.75
2019-03-17T13:49:05.883Z,95007.39
2019-03-17T13:52:07.243Z,95009.05
2019-03-17T13:54:49.947Z,95036.08
2019-03-17T13:57:51.662Z,95021.81
2019-03-17T14:00:34.239Z,95026.72
2019-03-17T14:03:23.979Z,95063.58
2019-03-17T14:06:20.935Z,95059.28
2019-03-17T14:09:22.660Z,95050.33
2019-03-17T14:12:08.549Z,95067.89
2019-03-17T14:14:51.572Z,95076.84
2019-03-17T14:17:53.383Z,95073.41
2019-03-17T14:20:35.793Z,95074.81
2019-03-17T14:23:37.237Z,95078.80
2019-03-17T14:26:19.789Z,95076.92
2019-03-17T14:29:09.723Z,95074.06
2019-03-17T14:31:59.485Z,95061.75
2019-03-17T14:34:49.210Z,95059.06
2019-03-17T14:37:39.231Z,95087.23
2019-03-17T14:40:22.787Z,95100.09
2019-03-17T14:43:12.504Z,95094.73
2019-03-17T14:45:55.157Z,95107.79
2019-03-17T14:51:40.724Z,95099.03
2019-03-17T14:54:30.443Z,95118.88
2019-03-17T14:57:20.167Z,95112.16
2019-03-17T15:00:12.768Z,95126.28
2019-03-17T15:02:55.431Z,95121.69
2019-03-17T15:05:45.152Z,95141.43
2019-03-17T15:08:28.289Z,95141.46
2019-03-17T15:11:18.022Z,95177.11
2019-03-17T15:14:02.148Z,95183.59
2019-03-17T15:16:32.865Z,95193.55
2019-03-17T15:19:22.572Z,95217.09
2019-03-17T15:22:05.284Z,95227.00
2019-03-17T15:27:50.089Z,95255.33
2019-03-17T15:30:39.890Z,95265.25
2019-03-17T15:36:24.014Z,95295.53
2019-03-17T15:39:13.956Z,95303.77
2019-03-17T15:42:22.948Z,95322.39
2019-03-17T15:45:14.495Z,95343.66
2019-03-17T15:48:04.519Z,95350.25
2019-03-17T15:50:54.380Z,95342.76
2019-03-17T15:57:13.243Z,95382.30
2019-03-17T15:59:55.206Z,95402.84
2019-03-17T16:02:45.024Z,95388.12
2019-03-17T16:05:34.818Z,95428.72
2019-03-17T16:08:24.503Z,95427.52
2019-03-17T16:10:55.244Z,95430.58
2019-03-17T16:13:45.044Z,95433.44
2019-03-17T16:16:34.744Z,95439.80
2019-03-17T16:19:17.425Z,95437.84
2019-03-17T16:22:07.267Z,95448.45
2019-03-17T16:24:50.584Z,95455.76
2019-03-17T16:27:40.317Z,95449.11
2019-03-17T16:30:23.358Z,95421.75
2019-03-17T16:33:13.186Z,95456.72
2019-03-17T16:35:55.248Z,95455.39
2019-03-17T16:38:44.969Z,95465.58
2019-03-17T16:41:43.394Z,95474.72
2019-03-17T16:44:19.201Z,95469.80
2019-03-17T16:50:06.006Z,95525.33
2019-03-17T16:55:58.605Z,95525.69
2019-03-17T17:01:44.315Z,95544.80
2019-03-17T17:04:45.255Z,95558.31
2019-03-17T17:07:29.929Z,95575.75
2019-03-17T17:10:14.124Z,95590.84
2019-03-17T17:13:03.987Z,95597.03
2019-03-17T17:15:53.776Z,95615.30
2019-03-17T17:18:43.669Z,95617.97
2019-03-17T17:21:26.941Z,95630.29
2019-03-17T17:24:09.947Z,95621.36
2019-03-17T17:27:20.647Z,95648.69
2019-03-17T17:30:03.743Z,95639.74
2019-03-17T17:32:53.615Z,95664.27
2019-03-17T17:35:43.431Z,95660.88
2019-03-17T17:41:27.819Z,95665.77
2019-03-17T17:44:31.047Z,95667.53
2019-03-17T17:47:16.122Z,95688.02
2019-03-17T17:53:00.088Z,95693.36
2019-03-17T17:55:49.941Z,95681.98
2019-03-17T17:58:32.372Z,95691.53
2019-03-17T18:04:16.193Z,95723.76
2019-03-17T18:07:06.081Z,95730.19
2019-03-17T18:13:17.360Z,95748.33
2019-03-17T18:16:00.747Z,95740.27
2019-03-17T18:18:43.092Z,95758.57
2019-03-17T18:21:44.501Z,95755.91
2019-03-17T18:24:26.834Z,95776.16
2019-03-17T18:27:18.229Z,95768.14
2019-03-17T18:29:49.058Z,95754.56
2019-03-17T18:32:38.806Z,95772.70
2019-03-17T18:35:21.263Z,95780.51
2019-03-17T18:38:11.014Z,95784.27
2019-03-17T18:41:00.915Z,95788.91
2019-03-17T18:43:50.695Z,95787.48
2019-03-17T18:46:40.472Z,95779.50
2019-03-17T18:49:30.224Z,95786.70
2019-03-17T18:52:19.956Z,95795.36
2019-03-17T18:55:03.365Z,95799.55
2019-03-17T18:57:53.287Z,95797.80
2019-03-17T19:00:43.180Z,95807.66
2019-03-17T19:03:32.923Z,95780.27
2019-03-17T19:06:22.782Z,95795.88
2019-03-17T19:09:06.888Z,95817.45
2019-03-17T19:11:56.684Z,95834.84
2019-03-17T19:14:46.467Z,95830.23
2019-03-17T19:17:36.287Z,95834.06
2019-03-17T19:20:26.099Z,95831.02
2019-03-17T19:23:15.824Z,95823.21
2019-03-17T19:25:58.570Z,95832.96
2019-03-17T19:28:48.328Z,95826.21
2019-03-17T19:31:30.716Z,95798.67
2019-03-17T19:34:20.602Z,95815.11
2019-03-17T19:37:02.923Z,95815.63
2019-03-17T19:39:52.799Z,95812.29
2019-03-17T19:42:35.243Z,95807.52
2019-03-17T19:45:25.150Z,95817.69
2019-03-17T19:48:08.612Z,95825.06
2019-03-17T19:53:52.724Z,95808.17
2019-03-17T19:56:35.225Z,95831.74
2019-03-17T20:05:07.093Z,95826.00
2019-03-17T20:07:51.371Z,95833.80
2019-03-17T20:10:41.074Z,95832.45
2019-03-17T20:13:42.424Z,95835.88
2019-03-17T20:16:25.200Z,95821.66
2019-03-17T20:18:55.869Z,95814.92
2019-03-17T20:21:26.705Z,95865.19
2019-03-17T20:24:16.416Z,95844.39
2019-03-17T20:26:58.833Z,95853.78
2019-03-17T20:29:48.636Z,95856.67
2019-03-17T20:32:38.412Z,95862.63
2019-03-17T20:35:20.971Z,95859.09
2019-03-17T20:38:10.737Z,95840.13
2019-03-17T20:41:00.430Z,95852.41
2019-03-17T20:44:09.962Z,95859.86
2019-03-17T20:47:12.088Z,95878.69
2019-03-17T20:49:54.465Z,95885.63
2019-03-17T20:55:28.440Z,95896.14
2019-03-17T21:01:12.203Z,95901.25
2019-03-17T21:04:01.980Z,95905.72
2019-03-17T21:09:54.794Z,95912.12
2019-03-17T21:15:46.337Z,95912.69
2019-03-17T21:21:31.471Z,95919.72
2019-03-17T21:24:21.225Z,95923.67
2019-03-17T21:27:10.967Z,95933.77
2019-03-17T21:29:54.769Z,95943.20
2019-03-17T21:32:44.501Z,95932.63
2019-03-17T21:35:27.338Z,95938.09
2019-03-17T21:38:17.219Z,95939.30
2019-03-17T21:41:07.522Z,95943.42
2019-03-17T21:43:59.328Z,95947.02
2019-03-17T21:46:42.826Z,95951.20
2019-03-17T21:49:32.569Z,95941.47
2019-03-17T21:52:22.363Z,95960.44
2019-03-17T21:55:12.259Z,95954.84
2019-03-17T21:58:07.784Z,95959.20
2019-03-17T22:00:46.457Z,95948.93
2019-03-17T22:03:47.185Z,95957.61
2019-03-17T22:06:28.545Z,95963.20
2019-03-17T22:18:25.591Z,95963.48
2019-03-17T22:21:08.421Z,95959.70
2019-03-17T22:23:58.223Z,95969.64
2019-03-17T22:33:13.774Z,95973.19
2019-03-17T22:36:03.697Z,95980.02
2019-03-17T22:39:06.471Z,95990.25
2019-03-17T22:41:49.072Z,95995.19
2019-03-17T22:47:15.690Z,95992.68
2019-03-17T22:50:17.776Z,95991.98
2019-03-17T22:52:59.723Z,95973.84
2019-03-17T22:55:49.524Z,95973.41
2019-03-17T22:58:39.297Z,95976.67
2019-03-17T23:01:22.270Z,95965.39
2019-03-17T23:04:12.077Z,95964.80
2019-03-17T23:07:01.832Z,95974.58
2019-03-17T23:09:51.522Z,95974.67
2019-03-17T23:12:41.250Z,95988.45
2019-03-17T23:18:27.062Z,95986.44
2019-03-17T23:21:16.862Z,95981.28
2019-03-17T23:24:06.580Z,95981.64
2019-03-17T23:26:49.070Z,95984.67
2019-03-17T23:29:57.948Z,95959.04
2019-03-17T23:36:01.918Z,95990.38
2019-03-17T23:38:51.720Z,95985.77
2019-03-17T23:41:41.526Z,95996.42
2019-03-17T23:44:31.358Z,95993.76
2019-03-17T23:47:21.144Z,95987.52
2019-03-17T23:50:22.915Z,95984.98
2019-03-17T23:53:04.903Z,95981.33
2019-03-17T23:55:54.692Z,95994.41
2019-03-17T23:58:44.514Z,95995.43
